Time;durP1;ratioP1;P1;durP2;ratioP2;P2;SDS_P1;SDS_P2;PMS_P1;PMS_P2;Temp;Humidity;BMP_temperature;BMP_pressure;BME280_temperature;BME280_humidity;BME280_pressure;Samples;Min_cycle;Max_cycle;Signal;HPM_P1;HPM_P2
2022/11/19 00:00:09;;;;;;;;;32.25;30.00;;;;;5.87;45.76;97936.53;6153820;28;96318;-62
2022/11/19 00:03:12;;;;;;;;;31.80;30.00;;;;;5.81;45.79;97942.72;6187868;28;96276;-62
2022/11/19 00:06:19;;;;;;;;;33.00;30.00;;;;;5.86;45.67;97934.88;6168582;28;96700;-62
2022/11/19 00:09:22;;;;;;;;;29.00;26.00;;;;;5.88;45.73;97932.81;6188073;28;96339;-62
2022/11/19 00:15:47;;;;;;;;;30.80;28.80;;;;;5.87;46.09;97943.72;6172746;28;96275;-62
2022/11/19 00:18:50;;;;;;;;;37.80;34.00;;;;;5.86;46.20;97950.94;6177933;28;97524;-62
2022/11/19 00:21:54;;;;;;;;;31.20;29.20;;;;;5.65;46.47;97909.28;6186918;28;97962;-62
2022/11/19 00:24:58;;;;;;;;;37.33;32.33;;;;;5.81;46.56;97948.06;6186709;28;97037;-62
2022/11/19 00:28:02;;;;;;;;;31.25;28.25;;;;;5.81;45.97;97960.63;6186655;28;96337;-61
2022/11/19 00:31:07;;;;;;;;;32.50;30.00;;;;;5.83;46.24;97954.00;6160491;28;96762;-62
2022/11/19 00:34:11;;;;;;;;;30.60;29.60;;;;;5.84;45.88;97965.53;6185715;28;97644;-63
2022/11/19 00:37:16;;;;;;;;;34.00;31.50;;;;;5.82;46.13;97959.56;6181230;28;96359;-62
2022/11/19 00:40:19;;;;;;;;;27.40;26.00;;;;;5.81;45.81;97956.09;6168855;28;96555;-63
2022/11/19 00:46:43;;;;;;;;;41.25;36.00;;;;;5.79;46.10;97954.66;6169376;28;96460;-61
2022/11/19 00:49:46;;;;;;;;;34.00;31.80;;;;;5.80;46.05;97949.09;6177065;28;96208;-62
2022/11/19 00:52:51;;;;;;;;;33.50;31.50;;;;;5.77;45.83;97967.41;6165951;28;96838;-62
2022/11/19 00:55:54;;;;;;;;;20.20;20.20;;;;;5.76;45.85;97960.44;6168446;28;96768;-62
2022/11/19 00:58:58;;;;;;;;;38.60;33.40;;;;;5.82;45.12;97979.13;6165375;28;99189;-62
2022/11/19 01:02:01;;;;;;;;;36.40;31.80;;;;;5.82;45.58;97955.03;6182110;28;96283;-62
2022/11/19 01:05:05;;;;;;;;;34.00;31.00;;;;;5.87;45.39;97963.28;6188010;28;96241;-62
2022/11/19 01:08:10;;;;;;;;;32.00;31.00;;;;;5.87;45.21;97957.94;6186076;28;96343;-62
2022/11/19 01:11:16;;;;;;;;;33.60;31.60;;;;;5.85;45.23;97978.72;6187140;28;96297;-62
2022/11/19 01:14:19;;;;;;;;;26.00;25.40;;;;;5.89;45.10;97976.44;6168459;28;96673;-62
2022/11/19 01:17:22;;;;;;;;;29.20;27.60;;;;;5.84;45.22;97974.38;6186782;28;96268;-61
2022/11/19 01:20:26;;;;;;;;;29.40;28.40;;;;;5.78;44.94;97977.09;6185864;28;96865;-62
2022/11/19 01:23:32;;;;;;;;;30.40;29.00;;;;;5.58;44.78;97945.09;6187101;28;96533;-61
2022/11/19 01:26:36;;;;;;;;;26.60;26.60;;;;;5.74;44.67;97970.53;6187281;28;96304;-61
2022/11/19 01:29:46;;;;;;;;;29.20;26.80;;;;;5.78;44.72;97964.53;6167100;28;96622;-62
2022/11/19 01:32:49;;;;;;;;;31.60;30.00;;;;;5.79;44.39;97970.69;6185444;28;97671;-63
2022/11/19 01:35:57;;;;;;;;;30.40;29.00;;;;;5.75;44.37;97974.84;6182925;28;96479;-62
2022/11/19 01:39:01;;;;;;;;;30.60;27.80;;;;;5.70;44.29;97971.97;6168203;28;96722;-62
2022/11/19 01:42:48;;;;;;;;;28.40;26.00;;;;;5.71;44.80;97974.47;6169523;28;96689;-63
2022/11/19 01:45:33;;;;;;;;;29.75;28.75;;;;;5.72;44.75;97978.75;6185209;28;97776;-62
2022/11/19 01:48:41;;;;;;;;;30.75;29.75;;;;;5.69;45.42;97976.50;6179573;28;96459;-62
2022/11/19 01:51:51;;;;;;;;;27.60;26.60;;;;;5.66;45.43;97980.44;6185183;28;96558;-62
2022/11/19 01:54:56;;;;;;;;;27.80;26.00;;;;;5.69;45.39;97989.88;6166650;28;96678;-62
2022/11/19 01:58:02;;;;;;;;;27.60;25.00;;;;;5.67;45.08;97984.72;6177448;28;96576;-62
2022/11/19 02:01:06;;;;;;;;;29.25;26.25;;;;;5.71;44.67;97985.16;6186526;28;96548;-62
2022/11/19 02:04:13;;;;;;;;;34.75;32.00;;;;;5.67;45.09;97999.97;6184456;28;96467;-62
2022/11/19 02:07:20;;;;;;;;;32.40;30.00;;;;;5.69;45.21;98008.59;6184210;28;98376;-62
2022/11/19 02:10:34;;;;;;;;;30.20;28.60;;;;;5.66;44.98;97993.00;6155216;28;96809;-62
2022/11/19 02:13:42;;;;;;;;;32.50;31.00;;;;;5.70;45.13;98020.94;6168198;28;96351;-62
2022/11/19 02:17:10;;;;;;;;;29.20;28.00;;;;;5.64;44.85;98013.75;6168135;28;97129;-62
2022/11/19 02:20:43;;;;;;;;;30.75;28.50;;;;;5.60;44.85;98024.06;6187077;28;96984;-62
2022/11/19 02:24:08;;;;;;;;;30.40;29.20;;;;;5.61;44.67;98020.38;6189286;28;96849;-61
2022/11/19 02:27:46;;;;;;;;;32.00;30.00;;;;;5.57;44.57;98019.13;6183233;28;96542;-62
2022/11/19 02:30:54;;;;;;;;;35.00;31.40;;;;;5.60;45.00;98040.09;6188634;28;97439;-62
2022/11/19 02:34:02;;;;;;;;;31.80;30.40;;;;;5.53;45.32;98030.44;6189611;28;96283;-62
2022/11/19 02:37:12;;;;;;;;;32.50;30.25;;;;;5.53;45.60;98035.78;6189432;28;96844;-61
2022/11/19 02:40:22;;;;;;;;;32.75;30.00;;;;;5.59;45.28;98041.13;6190032;28;96816;-62
2022/11/19 02:43:33;;;;;;;;;38.75;33.75;;;;;5.62;45.48;98042.53;6187129;28;96275;-62
2022/11/19 02:46:38;;;;;;;;;32.00;30.40;;;;;5.62;45.14;98050.56;6156494;28;96476;-62
2022/11/19 02:49:44;;;;;;;;;32.40;30.60;;;;;5.62;44.86;98050.56;6189694;28;96333;-61
2022/11/19 02:52:48;;;;;;;;;38.40;33.00;;;;;5.68;44.85;98055.09;6189912;28;96390;-63
2022/11/19 03:06:09;;;;;;;;;29.80;29.00;;;;;5.68;44.87;98069.28;6185094;28;96311;-62
2022/11/19 03:09:13;;;;;;;;;32.80;31.00;;;;;5.62;45.25;98077.31;6200008;28;96219;-62
2022/11/19 03:12:23;;;;;;;;;35.00;32.25;;;;;5.61;45.28;98081.84;6189344;28;96873;-62
2022/11/19 03:19:06;;;;;;;;;33.50;32.00;;;;;5.56;45.45;98089.69;6181194;28;96252;-63
2022/11/19 03:22:16;;;;;;;;;29.80;28.20;;;;;5.55;45.51;98081.88;6187356;28;97399;-63
2022/11/19 03:25:26;;;;;;;;;32.75;30.75;;;;;5.55;45.56;98089.88;6188884;28;96167;-63
2022/11/19 03:28:35;;;;;;;;;31.40;30.00;;;;;5.50;45.37;98087.84;6187833;28;96755;-63
2022/11/19 03:31:44;;;;;;;;;28.00;28.00;;;;;5.46;45.74;98085.78;6180666;28;96337;-61
2022/11/19 03:34:53;;;;;;;;;34.40;32.00;;;;;5.47;45.66;98088.25;6189082;28;96321;-63
2022/11/19 03:38:01;;;;;;;;;28.75;27.25;;;;;5.48;45.68;98089.88;6185713;28;96492;-63
2022/11/19 03:41:07;;;;;;;;;36.25;32.75;;;;;5.51;45.33;98094.84;6187795;28;96218;-63
2022/11/19 03:44:15;;;;;;;;;35.50;31.50;;;;;5.52;45.20;98093.00;6171515;28;96370;-63
2022/11/19 03:47:22;;;;;;;;;30.20;29.60;;;;;5.50;45.34;98101.22;6188169;28;98626;-62
2022/11/19 03:50:32;;;;;;;;;37.00;33.60;;;;;5.48;45.99;98097.09;6188904;28;97164;-62
2022/11/19 03:53:36;;;;;;;;;29.60;28.00;;;;;5.49;45.93;98099.56;6187605;28;96319;-63
2022/11/19 03:56:41;;;;;;;;;31.40;30.00;;;;;5.50;46.46;98103.06;6169806;28;96530;-62
2022/11/19 03:59:45;;;;;;;;;38.50;34.25;;;;;5.54;46.15;98113.13;6170899;28;97984;-61
2022/11/19 04:02:49;;;;;;;;;38.80;33.40;;;;;5.55;45.70;98113.94;6188117;28;96175;-62
2022/11/19 04:05:53;;;;;;;;;34.67;32.00;;;;;5.57;46.12;98110.03;6187835;28;97246;-62
2022/11/19 04:08:57;;;;;;;;;38.25;33.25;;;;;5.55;46.16;98108.59;6188287;28;96230;-61
2022/11/19 04:12:02;;;;;;;;;35.25;32.25;;;;;5.55;46.24;98116.63;6187408;28;96746;-62
2022/11/19 04:15:07;;;;;;;;;34.00;31.00;;;;;5.56;45.87;98120.94;6187846;28;96748;-63
2022/11/19 04:18:10;;;;;;;;;30.00;30.00;;;;;5.53;45.69;98122.16;6187455;28;96222;-63
2022/11/19 04:21:15;;;;;;;;;35.50;32.00;;;;;5.54;46.20;98129.16;6187082;28;97183;-63
2022/11/19 04:24:18;;;;;;;;;36.00;32.40;;;;;5.53;46.67;98134.72;6188303;28;96298;-63
2022/11/19 04:27:22;;;;;;;;;41.00;34.00;;;;;5.53;46.59;98127.50;6168957;28;99040;-61
2022/11/19 04:30:25;;;;;;;;;34.00;31.00;;;;;5.55;46.56;98132.66;6187261;28;98113;-62
2022/11/19 04:33:28;;;;;;;;;35.40;32.40;;;;;5.53;46.64;98135.53;6170024;28;96756;-62
2022/11/19 04:36:33;;;;;;;;;35.50;33.00;;;;;5.55;46.67;98132.66;6188579;28;96373;-62
2022/11/19 04:39:36;;;;;;;;;38.00;33.00;;;;;5.56;46.71;98137.81;6186910;28;96253;-62
2022/11/19 04:42:39;;;;;;;;;35.80;32.00;;;;;5.58;46.52;98141.09;6184473;28;96384;-62
2022/11/19 04:45:42;;;;;;;;;32.00;30.00;;;;;5.58;46.56;98135.72;6183783;28;96342;-62
2022/11/19 04:48:46;;;;;;;;;28.60;27.40;;;;;5.51;46.13;98139.47;6183614;28;96344;-62
2022/11/19 04:51:50;;;;;;;;;30.80;30.00;;;;;5.49;46.53;98150.34;6185965;28;97050;-62
2022/11/19 04:54:54;;;;;;;;;39.00;34.00;;;;;5.48;46.65;98154.03;6166875;28;96815;-62
2022/11/19 04:57:57;;;;;;;;;37.40;33.00;;;;;5.44;46.64;98152.00;6180261;28;96798;-63
2022/11/19 05:01:01;;;;;;;;;37.00;32.50;;;;;5.47;46.83;98159.63;6187277;28;98521;-62
2022/11/19 05:04:04;;;;;;;;;36.60;32.60;;;;;5.48;46.66;98167.41;6185407;28;96883;-63
2022/11/19 05:07:09;;;;;;;;;36.80;33.00;;;;;5.50;46.57;98165.38;6185985;28;98237;-62
2022/11/19 05:10:13;;;;;;;;;32.33;30.00;;;;;5.47;46.25;98165.75;6187142;28;96081;-62
2022/11/19 05:13:16;;;;;;;;;32.40;30.40;;;;;5.48;46.53;98174.59;6186967;28;96285;-63
2022/11/19 05:16:20;;;;;;;;;35.20;32.20;;;;;5.51;46.34;98171.53;6168252;28;96660;-62
2022/11/19 05:19:23;;;;;;;;;29.00;27.00;;;;;5.52;45.83;98183.88;6186634;28;96703;-62
2022/11/19 05:22:28;;;;;;;;;35.00;30.00;;;;;5.47;46.06;98191.69;6183844;28;96337;-62
2022/11/19 05:25:31;;;;;;;;;36.25;32.75;;;;;5.44;46.08;98200.13;6183972;28;96834;-62
2022/11/19 05:28:35;;;;;;;;;31.80;30.20;;;;;5.44;46.24;98210.81;6163095;28;98707;-62
2022/11/19 05:31:42;;;;;;;;;33.60;29.60;;;;;5.46;45.56;98211.44;6185055;28;96570;-62
2022/11/19 05:34:45;;;;;;;;;32.50;30.75;;;;;5.44;46.02;98216.16;6168669;28;96496;-63
2022/11/19 05:37:51;;;;;;;;;31.60;29.80;;;;;5.41;46.20;98216.56;6185320;28;97574;-62
2022/11/19 05:40:54;;;;;;;;;37.80;33.20;;;;;5.39;46.12;98221.28;6186374;28;96395;-63
2022/11/19 05:43:57;;;;;;;;;34.60;32.00;;;;;5.30;46.14;98222.53;6185774;28;96836;-62
2022/11/19 05:47:00;;;;;;;;;34.00;31.60;;;;;5.21;46.12;98227.25;6185324;28;96536;-62
2022/11/19 05:50:04;;;;;;;;;27.00;24.20;;;;;5.23;46.13;98228.66;6165120;28;98258;-62
2022/11/19 05:53:09;;;;;;;;;38.20;33.60;;;;;5.29;46.81;98237.72;6186926;28;96720;-62
2022/11/19 05:56:12;;;;;;;;;32.60;30.80;;;;;5.37;46.96;98239.41;6190101;28;96306;-62
2022/11/19 05:59:16;;;;;;;;;39.00;33.50;;;;;5.28;46.83;98230.72;6188535;28;96513;-62
2022/11/19 06:02:20;;;;;;;;;31.60;29.60;;;;;5.41;46.38;98245.97;6188552;28;96911;-62
2022/11/19 06:05:23;;;;;;;;;31.40;29.00;;;;;5.44;46.55;98250.91;6189995;28;96618;-62
2022/11/19 06:08:28;;;;;;;;;36.80;33.20;;;;;5.46;46.55;98264.91;6187193;28;97056;-62
2022/11/19 06:11:50;;;;;;;;;36.00;32.00;;;;;5.45;46.47;98268.59;6189546;28;96359;-62
2022/11/19 06:14:54;;;;;;;;;34.80;31.80;;;;;5.47;46.83;98277.25;6189964;28;96815;-63
2022/11/19 06:17:57;;;;;;;;;34.40;32.00;;;;;5.52;46.78;98280.13;6188924;28;96600;-62
2022/11/19 06:21:01;;;;;;;;;37.40;33.00;;;;;5.53;46.32;98273.72;6189750;28;96727;-62
2022/11/19 06:24:06;;;;;;;;;33.00;31.50;;;;;5.53;46.32;98274.56;6190586;28;96570;-62
2022/11/19 06:27:09;;;;;;;;;31.00;30.00;;;;;5.56;46.82;98284.88;6189519;28;96151;-62
2022/11/19 06:30:14;;;;;;;;;38.40;33.00;;;;;5.54;46.69;98280.72;6190323;28;96226;-61
2022/11/19 06:33:18;;;;;;;;;37.00;32.00;;;;;5.53;47.00;98287.94;6190117;28;96378;-63
2022/11/19 06:36:22;;;;;;;;;30.00;29.00;;;;;5.54;47.22;98292.25;6189780;28;96376;-63
2022/11/19 06:39:31;;;;;;;;;41.50;36.00;;;;;5.53;47.57;98285.25;6186480;28;97545;-63
2022/11/19 06:42:37;;;;;;;;;39.40;34.40;;;;;5.47;47.41;98307.44;6172390;28;96970;-63
2022/11/19 06:45:40;;;;;;;;;32.60;30.60;;;;;5.48;47.64;98314.44;6189518;28;96805;-63
2022/11/19 06:48:44;;;;;;;;;38.00;34.00;;;;;5.55;47.70;98317.97;6189071;28;96359;-63
2022/11/19 06:51:47;;;;;;;;;34.20;32.00;;;;;5.55;47.58;98322.50;6188185;28;96280;-63
2022/11/19 06:54:51;;;;;;;;;36.50;32.50;;;;;5.54;47.60;98340.38;6187117;28;96206;-63
2022/11/19 06:57:56;;;;;;;;;32.20;30.60;;;;;5.59;47.40;98337.09;6187370;28;96551;-63
2022/11/19 07:00:59;;;;;;;;;35.00;32.00;;;;;5.64;47.15;98340.81;6187497;28;97057;-63
2022/11/19 07:04:03;;;;;;;;;32.75;29.75;;;;;5.62;46.49;98334.00;6187743;28;96402;-63
2022/11/19 07:07:06;;;;;;;;;37.50;33.00;;;;;5.64;46.18;98342.66;6175655;28;96835;-63
2022/11/19 07:10:11;;;;;;;;;37.40;32.80;;;;;5.68;46.34;98346.56;6189700;28;96412;-63
2022/11/19 07:13:14;;;;;;;;;34.00;31.40;;;;;5.63;46.39;98331.13;6189717;28;96552;-63
2022/11/19 07:16:18;;;;;;;;;33.25;32.00;;;;;5.84;45.92;98350.72;6176093;28;98695;-62
2022/11/19 07:19:21;;;;;;;;;40.20;34.00;;;;;5.82;45.31;98347.41;6187998;28;96652;-62
2022/11/19 07:22:26;;;;;;;;;34.20;32.00;;;;;5.96;45.11;98349.13;6188540;28;98169;-63
2022/11/19 07:25:30;;;;;;;;;27.00;25.00;;;;;6.11;44.79;98348.91;6189423;28;96302;-62
2022/11/19 07:28:35;;;;;;;;;33.20;30.00;;;;;6.23;44.64;98347.25;6189386;28;96469;-62
2022/11/19 07:31:38;;;;;;;;;34.20;31.20;;;;;6.39;44.16;98357.53;6188696;28;97524;-62
2022/11/19 07:34:41;;;;;;;;;28.60;27.60;;;;;6.66;43.54;98351.09;6186676;28;96653;-63
2022/11/19 07:37:44;;;;;;;;;31.40;30.00;;;;;6.91;42.96;98362.75;6189632;28;97740;-63
2022/11/19 07:40:54;;;;;;;;;28.00;25.60;;;;;7.17;42.69;98359.19;6188694;28;96220;-63
2022/11/19 07:43:56;;;;;;;;;31.00;29.75;;;;;7.26;42.44;98363.25;6189054;28;96937;-63
2022/11/19 07:46:59;;;;;;;;;35.20;32.80;;;;;7.35;42.61;98350.41;6187929;28;96523;-63
2022/11/19 07:50:04;;;;;;;;;35.33;32.00;;;;;7.51;42.44;98363.34;6188514;28;96925;-63
2022/11/19 07:53:08;;;;;;;;;36.20;31.60;;;;;7.54;42.34;98368.25;6186833;28;96668;-63
2022/11/19 07:56:12;;;;;;;;;36.00;32.00;;;;;7.47;42.09;98372.03;6158403;28;97183;-63
2022/11/19 07:59:16;;;;;;;;;39.20;34.60;;;;;7.48;42.27;98369.13;6187156;28;97112;-63
2022/11/19 08:02:19;;;;;;;;;36.40;32.00;;;;;7.54;41.60;98379.00;6164734;28;97628;-63
2022/11/19 08:05:22;;;;;;;;;43.00;35.00;;;;;7.47;41.16;98375.53;6188536;28;96480;-63
2022/11/19 08:08:26;;;;;;;;;41.25;35.00;;;;;7.54;41.08;98379.00;6188005;28;96580;-63
2022/11/19 08:11:31;;;;;;;;;35.80;32.80;;;;;7.66;40.78;98371.09;6188511;28;96667;-62
2022/11/19 08:14:34;;;;;;;;;30.00;28.00;;;;;7.55;40.12;98361.88;6188787;28;96780;-63
2022/11/19 08:21:04;;;;;;;;;29.60;28.60;;;;;10.13;36.49;98372.34;6188234;28;96557;-62
2022/11/19 08:24:08;;;;;;;;;28.25;27.50;;;;;12.20;33.09;98377.88;6188109;28;96368;-63
2022/11/19 08:27:12;;;;;;;;;28.60;27.60;;;;;13.60;30.37;98370.16;6188208;28;96304;-63
2022/11/19 08:30:17;;;;;;;;;27.40;26.00;;;;;13.76;29.96;98371.97;6187370;28;96275;-63
2022/11/19 08:33:20;;;;;;;;;27.60;27.00;;;;;13.20;30.44;98378.59;6188210;28;97075;-63
2022/11/19 08:36:24;;;;;;;;;23.40;22.80;;;;;12.74;31.57;98376.31;6188306;28;96436;-63
2022/11/19 08:39:27;;;;;;;;;34.40;30.20;;;;;12.35;31.69;98376.25;6170475;28;97005;-63
2022/11/19 08:45:53;;;;;;;;;28.00;25.00;;;;;11.98;32.18;98392.06;6188364;28;96325;-64
2022/11/19 08:48:57;;;;;;;;;29.20;27.60;;;;;12.08;32.01;98396.84;6187781;28;97124;-63
2022/11/19 08:52:00;;;;;;;;;20.00;20.00;;;;;12.57;31.79;98396.06;6188081;28;96229;-62
2022/11/19 08:55:04;;;;;;;;;21.40;21.00;;;;;13.39;31.45;98392.66;6187466;28;96338;-64
2022/11/19 08:58:12;;;;;;;;;32.00;30.00;;;;;13.31;31.14;98390.38;6187260;28;96916;-63
2022/11/19 09:01:18;;;;;;;;;22.00;21.75;;;;;13.01;34.23;98404.28;6169299;28;97021;-63
2022/11/19 09:04:24;;;;;;;;;23.25;23.00;;;;;12.89;34.36;98398.19;6186708;28;96401;-63
2022/11/19 09:07:29;;;;;;;;;28.60;27.00;;;;;12.58;33.87;98411.22;6169496;28;96483;-62
2022/11/19 09:10:32;;;;;;;;;25.00;24.00;;;;;12.01;35.95;98412.41;6177417;28;96297;-62
2022/11/19 09:13:38;;;;;;;;;32.00;30.00;;;;;11.29;35.64;98407.44;6187523;28;96666;-62
2022/11/19 09:16:41;;;;;;;;;27.20;25.20;;;;;10.87;37.33;98403.28;6154599;28;96463;-62
2022/11/19 09:19:44;;;;;;;;;30.50;29.50;;;;;10.46;37.71;98406.88;6183500;28;96395;-62
2022/11/19 09:22:48;;;;;;;;;33.60;31.00;;;;;9.87;37.41;98380.84;6187446;28;96327;-62
2022/11/19 09:25:56;;;;;;;;;33.75;31.75;;;;;9.47;38.19;98418.25;6187143;28;96280;-62
2022/11/19 09:29:00;;;;;;;;;30.60;29.00;;;;;9.01;38.92;98424.97;6168862;28;97628;-62
2022/11/19 09:32:04;;;;;;;;;31.00;29.60;;;;;8.64;39.26;98412.53;6192184;28;96363;-62
2022/11/19 09:35:08;;;;;;;;;33.80;30.80;;;;;8.24;39.79;98420.88;6188213;28;96415;-62
2022/11/19 09:38:12;;;;;;;;;30.50;28.50;;;;;8.00;40.74;98427.03;6191934;28;96222;-62
2022/11/19 09:41:34;;;;;;;;;31.20;29.80;;;;;7.62;41.08;98410.13;6191755;28;96749;-62
2022/11/19 09:45:05;;;;;;;;;29.00;28.00;;;;;7.48;41.91;98430.81;6192005;28;97431;-62
2022/11/19 09:48:29;;;;;;;;;38.00;33.40;;;;;7.32;42.27;98428.63;6179217;28;96531;-63
2022/11/19 09:51:34;;;;;;;;;26.60;24.40;;;;;7.24;42.60;98434.19;6191821;28;96325;-62
2022/11/19 09:54:49;;;;;;;;;34.20;31.00;;;;;6.94;42.75;98439.22;6190536;28;96360;-62
2022/11/19 09:57:57;;;;;;;;;32.40;29.60;;;;;6.73;43.10;98440.31;6172905;28;96649;-63
2022/11/19 10:01:02;;;;;;;;;32.00;30.00;;;;;6.67;43.78;98445.66;6191605;28;96456;-62
2022/11/19 10:04:05;;;;;;;;;23.50;20.75;;;;;6.65;43.19;98434.31;6177253;28;97188;-62
2022/11/19 10:07:17;;;;;;;;;28.50;28.00;;;;;6.59;43.42;98437.84;6191396;28;96243;-62
2022/11/19 10:10:37;;;;;;;;;34.40;31.00;;;;;6.75;43.25;98443.59;6191214;28;96443;-62
2022/11/19 10:13:53;;;;;;;;;31.60;29.60;;;;;7.01;42.63;98436.53;6161983;28;96900;-62
2022/11/19 10:17:11;;;;;;;;;30.40;28.00;;;;;8.42;40.83;98432.75;6190925;28;96896;-63
2022/11/19 10:20:41;;;;;;;;;30.00;28.50;;;;;10.55;37.42;98437.03;6177423;28;96361;-62
2022/11/19 10:23:51;;;;;;;;;22.50;20.00;;;;;12.89;33.71;98430.66;6191325;28;96269;-63
2022/11/19 10:27:00;;;;;;;;;20.00;18.80;;;;;14.91;30.24;98422.09;6190815;28;96371;-63
2022/11/19 10:30:15;;;;;;;;;17.40;17.20;;;;;16.38;27.31;98420.03;6188886;28;96388;-63
2022/11/19 10:33:27;;;;;;;;;21.00;19.20;;;;;16.04;26.98;98420.50;6186062;28;96952;-64
2022/11/19 10:36:36;;;;;;;;;23.60;22.20;;;;;15.06;28.54;98427.63;6174112;28;96435;-63
2022/11/19 10:39:43;;;;;;;;;23.40;23.40;;;;;14.03;29.58;98428.06;6165014;28;96434;-64
2022/11/19 10:42:52;;;;;;;;;23.25;22.75;;;;;13.12;30.77;98429.66;6179990;28;96396;-64
2022/11/19 10:45:58;;;;;;;;;34.80;30.40;;;;;12.17;31.81;98427.81;6187859;28;96415;-63
2022/11/19 10:49:04;;;;;;;;;26.25;22.50;;;;;11.35;33.26;98424.56;6171519;28;96673;-63
2022/11/19 10:52:25;;;;;;;;;29.40;28.00;;;;;10.84;34.35;98419.94;6183150;28;96552;-62
2022/11/19 10:55:32;;;;;;;;;32.00;30.00;;;;;10.12;35.50;98410.28;6178347;28;96601;-64
2022/11/19 10:58:40;;;;;;;;;38.00;33.40;;;;;9.74;36.45;98413.31;6175058;28;96388;-64
2022/11/19 11:01:47;;;;;;;;;30.00;27.20;;;;;9.73;36.72;98419.75;6169331;28;96418;-63
2022/11/19 11:05:04;;;;;;;;;36.40;33.00;;;;;9.55;36.56;98413.38;6186264;28;96486;-64
2022/11/19 11:08:11;;;;;;;;;33.60;31.40;;;;;9.73;37.01;98411.69;6183049;28;97028;-64
2022/11/19 11:11:22;;;;;;;;;34.00;31.00;;;;;10.83;36.22;98402.09;6181421;28;96354;-64
2022/11/19 11:17:47;;;;;;;;;21.50;20.50;;;;;14.79;29.16;98415.25;6083903;28;99236;-64
2022/11/19 11:20:52;;;;;;;;;25.00;23.00;;;;;14.66;27.89;98411.88;6138032;28;102168;-65
2022/11/19 11:23:56;;;;;;;;;27.80;24.40;;;;;14.61;28.94;98419.97;6181617;28;96536;-64
2022/11/19 11:27:21;;;;;;;;;23.00;20.60;;;;;15.55;27.98;98417.34;6176604;28;97151;-64
2022/11/19 11:30:24;;;;;;;;;26.00;24.00;;;;;15.98;26.54;98421.56;6165788;28;99711;-63
2022/11/19 11:33:31;;;;;;;;;27.40;25.40;;;;;15.63;27.24;98420.66;6190604;28;96477;-63
2022/11/19 11:36:37;;;;;;;;;29.25;26.50;;;;;14.84;28.74;98424.25;6170831;28;96702;-63
2022/11/19 11:39:43;;;;;;;;;26.60;25.60;;;;;14.05;29.34;98432.19;6170309;28;96843;-64
2022/11/19 11:42:46;;;;;;;;;26.20;24.20;;;;;13.31;30.29;98431.00;6189705;28;96394;-62
2022/11/19 11:45:56;;;;;;;;;35.00;32.00;;;;;12.68;31.54;98436.78;6188993;28;96398;-63
2022/11/19 11:49:01;;;;;;;;;29.50;28.50;;;;;12.12;32.25;98433.13;6170737;28;98906;-62
2022/11/19 11:52:23;;;;;;;;;30.40;30.00;;;;;11.60;32.71;98410.75;6181510;28;97051;-62
2022/11/19 11:55:31;;;;;;;;;32.00;30.00;;;;;11.20;33.53;98421.53;6188667;28;96368;-63
2022/11/19 11:58:36;;;;;;;;;32.00;30.00;;;;;10.80;33.86;98429.53;6187879;28;96372;-64
2022/11/19 12:01:41;;;;;;;;;35.00;32.40;;;;;10.62;35.38;98424.25;6187475;28;96301;-62
2022/11/19 12:04:45;;;;;;;;;35.40;32.00;;;;;10.39;35.54;98439.34;6191221;28;97109;-62
2022/11/19 12:08:02;;;;;;;;;32.40;30.00;;;;;10.10;35.52;98436.66;6164724;28;97254;-63
2022/11/19 12:11:16;;;;;;;;;31.00;29.20;;;;;9.86;35.74;98439.25;6173296;28;96330;-62
2022/11/19 12:14:23;;;;;;;;;34.00;31.50;;;;;9.50;36.30;98439.31;6170401;28;96449;-62
2022/11/19 12:17:40;;;;;;;;;37.20;32.00;;;;;9.16;36.25;98440.72;6176451;28;96461;-62
2022/11/19 12:20:54;;;;;;;;;33.00;30.00;;;;;8.73;36.56;98446.13;6169058;28;96235;-62
2022/11/19 12:24:16;;;;;;;;;33.20;30.00;;;;;8.31;37.25;98447.69;6168770;28;96983;-62
2022/11/19 12:27:28;;;;;;;;;34.20;31.40;;;;;7.65;38.43;98447.25;6168960;28;96451;-62
2022/11/19 12:30:49;;;;;;;;;38.20;33.60;;;;;7.53;39.36;98444.41;6170586;28;96982;-63
2022/11/19 12:34:10;;;;;;;;;40.75;34.50;;;;;7.35;40.22;98439.72;6165447;28;96535;-63
2022/11/19 12:37:27;;;;;;;;;43.75;36.00;;;;;7.27;39.94;98444.50;6149278;28;96673;-63
2022/11/19 12:40:41;;;;;;;;;41.40;34.60;;;;;7.00;40.88;98451.78;6168640;28;96600;-62
2022/11/19 12:43:55;;;;;;;;;39.00;34.33;;;;;6.87;41.13;98460.69;6172977;28;96225;-63
2022/11/19 12:47:11;;;;;;;;;45.40;38.40;;;;;6.76;41.74;98457.81;6150976;28;96669;-61
2022/11/19 12:50:22;;;;;;;;;46.40;38.00;;;;;6.81;42.12;98460.69;6177249;28;98655;-62
2022/11/19 12:53:45;;;;;;;;;45.75;38.00;;;;;6.64;42.07;98438.03;6165769;28;98090;-62
2022/11/19 12:56:58;;;;;;;;;39.40;33.40;;;;;6.57;42.13;98459.47;6183459;28;96539;-64
2022/11/19 13:00:12;;;;;;;;;38.50;34.50;;;;;6.41;42.92;98462.53;6186013;28;96860;-61
2022/11/19 13:03:20;;;;;;;;;34.25;31.75;;;;;6.26;43.16;98467.28;6166314;28;96663;-63
2022/11/19 13:06:30;;;;;;;;;34.00;31.50;;;;;6.35;42.74;98466.06;6149032;28;96678;-62
2022/11/19 13:09:38;;;;;;;;;36.75;32.25;;;;;6.36;43.15;98460.50;6173564;28;96372;-64
2022/11/19 13:12:49;;;;;;;;;40.60;35.40;;;;;6.45;43.46;98464.59;6160213;28;96644;-62
2022/11/19 13:15:58;;;;;;;;;38.40;33.40;;;;;6.51;43.24;98471.00;6168999;28;96738;-62
2022/11/19 13:19:13;;;;;;;;;37.50;32.75;;;;;6.56;43.34;98475.72;6184971;28;96219;-62
2022/11/19 13:22:20;;;;;;;;;43.00;36.60;;;;;6.58;43.07;98482.53;6186158;28;96510;-61
2022/11/19 13:25:26;;;;;;;;;39.75;34.75;;;;;6.55;43.05;98480.25;6185206;28;96187;-61
2022/11/19 13:28:38;;;;;;;;;47.50;39.50;;;;;6.50;42.94;98477.38;6186986;28;98128;-61
2022/11/19 13:31:46;;;;;;;;;47.00;39.00;;;;;6.56;43.31;98478.41;6184190;28;96486;-62
2022/11/19 13:35:03;;;;;;;;;36.00;33.00;;;;;6.39;43.31;98475.34;6168756;28;97014;-62
2022/11/19 13:38:16;;;;;;;;;41.60;36.00;;;;;6.44;43.64;98481.72;6165394;28;96269;-63
2022/11/19 13:41:24;;;;;;;;;45.00;37.00;;;;;6.25;43.46;98476.34;6167316;28;96896;-61
2022/11/19 13:44:37;;;;;;;;;45.00;37.00;;;;;6.35;43.63;98485.59;6171533;28;96493;-62
2022/11/19 13:47:46;;;;;;;;;41.80;35.40;;;;;6.26;43.61;98483.34;6177738;28;96431;-62
2022/11/19 13:50:52;;;;;;;;;39.80;33.60;;;;;6.30;43.82;98485.41;6183167;28;96283;-62
2022/11/19 13:53:57;;;;;;;;;47.00;40.00;;;;;6.27;44.05;98496.53;6165318;28;96531;-64
2022/11/19 13:57:07;;;;;;;;;40.60;34.80;;;;;6.00;44.70;98501.00;6177855;28;96793;-63
2022/11/19 14:00:23;;;;;;;;;41.00;36.00;;;;;5.70;45.02;98496.97;6175159;28;96884;-63
2022/11/19 14:03:44;;;;;;;;;40.20;35.00;;;;;5.82;45.51;98494.53;6174886;28;96224;-61
2022/11/19 14:07:09;;;;;;;;;46.40;39.00;;;;;5.96;45.66;98501.63;6166223;28;96463;-62
2022/11/19 14:10:22;;;;;;;;;50.00;42.40;;;;;6.09;44.64;98489.09;6175251;28;96434;-61
2022/11/19 14:13:50;;;;;;;;;45.00;38.00;;;;;6.21;44.05;98493.81;6178160;28;96598;-61
2022/11/19 14:28:48;;;;;;;;;39.20;34.20;;;;;6.32;43.86;98502.09;6169246;28;97693;-62
2022/11/19 14:32:28;;;;;;;;;49.25;40.00;;;;;6.22;44.53;98498.16;6136476;28;96597;-62
2022/11/19 14:35:39;;;;;;;;;41.00;35.00;;;;;5.94;44.84;98503.66;6184173;28;96556;-61
2022/11/19 14:38:48;;;;;;;;;47.00;37.80;;;;;5.56;45.67;98484.56;6186195;28;97448;-62
2022/11/19 14:42:13;;;;;;;;;47.20;39.00;;;;;5.72;45.63;98505.59;6162527;28;96656;-61
2022/11/19 14:45:20;;;;;;;;;45.00;36.60;;;;;5.66;46.06;98517.13;6176967;28;96416;-61
2022/11/19 14:48:25;;;;;;;;;43.80;37.80;;;;;5.50;46.05;98509.41;6164722;28;96842;-62
2022/11/19 14:51:33;;;;;;;;;44.80;37.40;;;;;5.45;46.13;98503.84;6172823;28;96227;-62
2022/11/19 14:54:42;;;;;;;;;45.50;37.00;;;;;5.40;46.23;98514.31;6183209;28;97026;-61
2022/11/19 14:57:56;;;;;;;;;43.00;36.00;;;;;5.37;46.31;98510.19;6161200;28;96895;-62
2022/11/19 15:01:08;;;;;;;;;47.00;40.00;;;;;5.32;46.37;98511.81;6175997;28;96617;-61
2022/11/19 15:04:13;;;;;;;;;49.00;40.00;;;;;5.27;46.69;98520.41;6103868;28;103513;-63
2022/11/19 15:07:34;;;;;;;;;48.20;40.20;;;;;5.28;46.69;98521.25;5311540;28;105706;-63
2022/11/19 15:10:48;;;;;;;;;49.00;41.00;;;;;5.30;46.66;98525.34;6183244;28;97023;-61
2022/11/19 15:15:03;;;;;;;;;47.40;38.80;;;;;5.29;46.99;98534.38;6179979;28;96458;-61